sensor_id;sensor_type;location;lat;lon;timestamp;temperature;humidity
30206;DHT22;17010;51.306;3.150;2023-09-18T00:00:19;20.70;99.90
30206;DHT22;17010;51.306;3.150;2023-09-18T00:02:47;20.70;99.90
30206;DHT22;17010;51.306;3.150;2023-09-18T00:05:13;20.70;99.90
30206;DHT22;17010;51.306;3.150;2023-09-18T00:07:42;20.70;99.90
30206;DHT22;17010;51.306;3.150;2023-09-18T00:10:12;20.70;99.90
30206;DHT22;17010;51.306;3.150;2023-09-18T00:12:39;20.70;99.90
30206;DHT22;17010;51.306;3.150;2023-09-18T00:15:08;20.70;99.90
30206;DHT22;17010;51.306;3.150;2023-09-18T00:17:38;20.70;99.90
30206;DHT22;17010;51.306;3.150;2023-09-18T00:20:06;20.70;99.90
30206;DHT22;17010;51.306;3.150;2023-09-18T00:22:34;20.70;99.90
30206;DHT22;17010;51.306;3.150;2023-09-18T00:25:00;20.70;99.90
30206;DHT22;17010;51.306;3.150;2023-09-18T00:27:30;20.60;99.90
30206;DHT22;17010;51.306;3.150;2023-09-18T00:29:57;20.60;99.90
30206;DHT22;17010;51.306;3.150;2023-09-18T00:32:24;20.60;99.90
30206;DHT22;17010;51.306;3.150;2023-09-18T00:34:51;20.60;99.90
30206;DHT22;17010;51.306;3.150;2023-09-18T00:37:17;20.60;99.90
30206;DHT22;17010;51.306;3.150;2023-09-18T00:39:43;20.60;99.90
30206;DHT22;17010;51.306;3.150;2023-09-18T00:42:10;20.60;99.90
30206;DHT22;17010;51.306;3.150;2023-09-18T00:44:42;20.50;99.90
30206;DHT22;17010;51.306;3.150;2023-09-18T00:47:09;20.50;99.90
30206;DHT22;17010;51.306;3.150;2023-09-18T00:49:37;20.50;99.90
30206;DHT22;17010;51.306;3.150;2023-09-18T00:52:05;20.50;99.90
30206;DHT22;17010;51.306;3.150;2023-09-18T00:54:32;20.50;99.90
30206;DHT22;17010;51.306;3.150;2023-09-18T00:56:59;20.40;99.90
30206;DHT22;17010;51.306;3.150;2023-09-18T00:59:26;20.40;99.90
30206;DHT22;17010;51.306;3.150;2023-09-18T01:01:54;20.40;99.90
30206;DHT22;17010;51.306;3.150;2023-09-18T01:04:21;20.40;99.90
30206;DHT22;17010;51.306;3.150;2023-09-18T01:06:49;20.30;99.90
30206;DHT22;17010;51.306;3.150;2023-09-18T01:09:17;20.30;99.90
30206;DHT22;17010;51.306;3.150;2023-09-18T01:17:26;20.30;99.90
30206;DHT22;17010;51.306;3.150;2023-09-18T01:19:52;20.30;99.90
30206;DHT22;17010;51.306;3.150;2023-09-18T01:22:21;20.30;99.90
30206;DHT22;17010;51.306;3.150;2023-09-18T01:24:48;20.20;99.90
30206;DHT22;17010;51.306;3.150;2023-09-18T01:27:16;20.20;99.90
30206;DHT22;17010;51.306;3.150;2023-09-18T01:29:47;20.20;99.90
30206;DHT22;17010;51.306;3.150;2023-09-18T01:32:23;20.20;99.90
30206;DHT22;17010;51.306;3.150;2023-09-18T01:34:54;20.10;99.90
30206;DHT22;17010;51.306;3.150;2023-09-18T01:37:25;20.10;99.90
30206;DHT22;17010;51.306;3.150;2023-09-18T01:39:52;20.00;99.90
30206;DHT22;17010;51.306;3.150;2023-09-18T01:42:20;20.00;99.90
30206;DHT22;17010;51.306;3.150;2023-09-18T01:44:47;20.00;99.90
30206;DHT22;17010;51.306;3.150;2023-09-18T01:47:18;19.90;99.90
30206;DHT22;17010;51.306;3.150;2023-09-18T01:49:45;19.90;99.90
30206;DHT22;17010;51.306;3.150;2023-09-18T01:52:12;19.90;99.90
30206;DHT22;17010;51.306;3.150;2023-09-18T01:54:38;19.90;99.90
30206;DHT22;17010;51.306;3.150;2023-09-18T01:57:05;19.90;99.90
30206;DHT22;17010;51.306;3.150;2023-09-18T01:59:33;19.90;99.90
30206;DHT22;17010;51.306;3.150;2023-09-18T02:02:01;19.90;99.90
30206;DHT22;17010;51.306;3.150;2023-09-18T02:04:29;19.90;99.90
30206;DHT22;17010;51.306;3.150;2023-09-18T02:06:57;19.90;99.90
30206;DHT22;17010;51.306;3.150;2023-09-18T02:09:25;19.90;99.90
30206;DHT22;17010;51.306;3.150;2023-09-18T02:11:51;19.90;99.90
30206;DHT22;17010;51.306;3.150;2023-09-18T02:14:18;19.90;99.90
30206;DHT22;17010;51.306;3.150;2023-09-18T02:16:45;19.80;99.90
30206;DHT22;17010;51.306;3.150;2023-09-18T02:19:15;19.80;99.90
30206;DHT22;17010;51.306;3.150;2023-09-18T02:21:42;19.70;99.90
30206;DHT22;17010;51.306;3.150;2023-09-18T02:24:09;19.70;99.90
30206;DHT22;17010;51.306;3.150;2023-09-18T02:26:37;19.70;99.90
30206;DHT22;17010;51.306;3.150;2023-09-18T02:29:06;19.60;99.90
30206;DHT22;17010;51.306;3.150;2023-09-18T02:31:33;19.60;99.90
30206;DHT22;17010;51.306;3.150;2023-09-18T02:33:59;19.60;99.90
30206;DHT22;17010;51.306;3.150;2023-09-18T02:36:26;19.60;99.90
30206;DHT22;17010;51.306;3.150;2023-09-18T02:38:53;19.60;99.90
30206;DHT22;17010;51.306;3.150;2023-09-18T02:41:20;19.60;99.90
30206;DHT22;17010;51.306;3.150;2023-09-18T02:43:47;19.60;99.90
30206;DHT22;17010;51.306;3.150;2023-09-18T02:46:14;19.60;99.90
30206;DHT22;17010;51.306;3.150;2023-09-18T02:48:40;19.60;99.90
30206;DHT22;17010;51.306;3.150;2023-09-18T02:51:08;19.70;99.90
30206;DHT22;17010;51.306;3.150;2023-09-18T02:53:34;19.70;99.90
30206;DHT22;17010;51.306;3.150;2023-09-18T02:56:01;19.70;99.90
30206;DHT22;17010;51.306;3.150;2023-09-18T02:58:27;19.70;99.90
30206;DHT22;17010;51.306;3.150;2023-09-18T03:00:57;19.70;99.90
30206;DHT22;17010;51.306;3.150;2023-09-18T03:03:24;19.70;99.90
30206;DHT22;17010;51.306;3.150;2023-09-18T03:05:51;19.70;99.90
30206;DHT22;17010;51.306;3.150;2023-09-18T03:08:18;19.70;99.90
30206;DHT22;17010;51.306;3.150;2023-09-18T03:10:44;19.70;99.90
30206;DHT22;17010;51.306;3.150;2023-09-18T03:13:13;19.60;99.90
30206;DHT22;17010;51.306;3.150;2023-09-18T03:15:41;19.60;99.90
30206;DHT22;17010;51.306;3.150;2023-09-18T03:18:10;19.50;99.90
30206;DHT22;17010;51.306;3.150;2023-09-18T03:20:37;19.50;99.90
30206;DHT22;17010;51.306;3.150;2023-09-18T03:23:03;19.50;99.90
30206;DHT22;17010;51.306;3.150;2023-09-18T03:25:30;19.50;99.90
30206;DHT22;17010;51.306;3.150;2023-09-18T03:27:57;19.50;99.90
30206;DHT22;17010;51.306;3.150;2023-09-18T03:30:24;19.40;99.90
30206;DHT22;17010;51.306;3.150;2023-09-18T03:32:52;19.40;99.90
30206;DHT22;17010;51.306;3.150;2023-09-18T03:35:19;19.40;99.90
30206;DHT22;17010;51.306;3.150;2023-09-18T03:37:50;19.30;99.90
30206;DHT22;17010;51.306;3.150;2023-09-18T03:40:17;19.30;99.90
30206;DHT22;17010;51.306;3.150;2023-09-18T03:42:45;19.20;99.90
30206;DHT22;17010;51.306;3.150;2023-09-18T03:45:12;19.20;99.90
30206;DHT22;17010;51.306;3.150;2023-09-18T03:47:39;19.10;99.90
30206;DHT22;17010;51.306;3.150;2023-09-18T03:50:07;19.10;99.90
30206;DHT22;17010;51.306;3.150;2023-09-18T03:52:34;19.10;99.90
30206;DHT22;17010;51.306;3.150;2023-09-18T03:55:00;19.00;99.90
30206;DHT22;17010;51.306;3.150;2023-09-18T03:57:27;19.00;99.90
30206;DHT22;17010;51.306;3.150;2023-09-18T03:59:54;19.00;99.90
30206;DHT22;17010;51.306;3.150;2023-09-18T04:02:24;18.90;99.90
30206;DHT22;17010;51.306;3.150;2023-09-18T04:04:51;18.90;99.90
30206;DHT22;17010;51.306;3.150;2023-09-18T04:07:19;18.90;99.90
30206;DHT22;17010;51.306;3.150;2023-09-18T04:09:46;18.80;99.90
30206;DHT22;17010;51.306;3.150;2023-09-18T04:12:13;18.80;99.90
30206;DHT22;17010;51.306;3.150;2023-09-18T04:14:39;18.70;99.90
30206;DHT22;17010;51.306;3.150;2023-09-18T04:17:07;18.70;99.90
30206;DHT22;17010;51.306;3.150;2023-09-18T04:19:34;18.70;99.90
30206;DHT22;17010;51.306;3.150;2023-09-18T04:22:01;18.70;99.90
30206;DHT22;17010;51.306;3.150;2023-09-18T04:24:27;18.60;99.90
30206;DHT22;17010;51.306;3.150;2023-09-18T04:26:53;18.60;99.90
30206;DHT22;17010;51.306;3.150;2023-09-18T04:29:19;18.60;99.90
30206;DHT22;17010;51.306;3.150;2023-09-18T04:31:46;18.50;99.90
30206;DHT22;17010;51.306;3.150;2023-09-18T04:34:12;18.50;99.90
30206;DHT22;17010;51.306;3.150;2023-09-18T04:36:39;18.40;99.90
30206;DHT22;17010;51.306;3.150;2023-09-18T04:39:06;18.40;99.90
30206;DHT22;17010;51.306;3.150;2023-09-18T04:41:32;18.40;99.90
30206;DHT22;17010;51.306;3.150;2023-09-18T04:43:59;18.30;99.90
30206;DHT22;17010;51.306;3.150;2023-09-18T04:46:26;18.30;99.90
30206;DHT22;17010;51.306;3.150;2023-09-18T04:48:53;18.30;99.90
30206;DHT22;17010;51.306;3.150;2023-09-18T04:51:19;18.30;99.90
30206;DHT22;17010;51.306;3.150;2023-09-18T04:53:46;18.30;99.90
30206;DHT22;17010;51.306;3.150;2023-09-18T04:56:13;18.30;99.90
30206;DHT22;17010;51.306;3.150;2023-09-18T04:58:39;18.20;99.90
30206;DHT22;17010;51.306;3.150;2023-09-18T05:01:06;18.20;99.90
30206;DHT22;17010;51.306;3.150;2023-09-18T05:03:36;18.20;99.90
30206;DHT22;17010;51.306;3.150;2023-09-18T05:06:03;18.10;99.90
30206;DHT22;17010;51.306;3.150;2023-09-18T05:08:30;18.10;99.90
30206;DHT22;17010;51.306;3.150;2023-09-18T05:10:57;18.10;99.90
30206;DHT22;17010;51.306;3.150;2023-09-18T05:13:23;18.10;99.90
30206;DHT22;17010;51.306;3.150;2023-09-18T05:15:49;18.10;99.90
30206;DHT22;17010;51.306;3.150;2023-09-18T05:18:18;18.00;99.90
30206;DHT22;17010;51.306;3.150;2023-09-18T05:20:44;18.00;99.90
30206;DHT22;17010;51.306;3.150;2023-09-18T05:23:12;18.00;99.90
30206;DHT22;17010;51.306;3.150;2023-09-18T05:25:39;17.90;99.90
30206;DHT22;17010;51.306;3.150;2023-09-18T05:28:08;17.90;99.90
30206;DHT22;17010;51.306;3.150;2023-09-18T05:30:35;17.90;99.90
30206;DHT22;17010;51.306;3.150;2023-09-18T05:33:05;17.80;99.90
30206;DHT22;17010;51.306;3.150;2023-09-18T05:35:32;17.80;99.90
30206;DHT22;17010;51.306;3.150;2023-09-18T05:37:59;17.80;99.90
30206;DHT22;17010;51.306;3.150;2023-09-18T05:40:26;17.80;99.90
30206;DHT22;17010;51.306;3.150;2023-09-18T05:42:53;17.80;99.90
30206;DHT22;17010;51.306;3.150;2023-09-18T05:45:20;17.70;99.90
30206;DHT22;17010;51.306;3.150;2023-09-18T05:47:47;17.70;99.90
30206;DHT22;17010;51.306;3.150;2023-09-18T05:50:14;17.70;99.90
30206;DHT22;17010;51.306;3.150;2023-09-18T05:52:42;17.70;99.90
30206;DHT22;17010;51.306;3.150;2023-09-18T05:55:09;17.70;99.90
30206;DHT22;17010;51.306;3.150;2023-09-18T05:57:36;17.70;99.90
30206;DHT22;17010;51.306;3.150;2023-09-18T06:00:03;17.70;99.90
30206;DHT22;17010;51.306;3.150;2023-09-18T06:02:29;17.70;99.90
30206;DHT22;17010;51.306;3.150;2023-09-18T06:04:56;17.70;99.90
30206;DHT22;17010;51.306;3.150;2023-09-18T06:07:27;17.60;99.90
30206;DHT22;17010;51.306;3.150;2023-09-18T06:09:53;17.70;99.90
30206;DHT22;17010;51.306;3.150;2023-09-18T06:12:20;17.70;99.90
30206;DHT22;17010;51.306;3.150;2023-09-18T06:14:48;17.70;99.90
30206;DHT22;17010;51.306;3.150;2023-09-18T06:17:14;17.70;99.90
30206;DHT22;17010;51.306;3.150;2023-09-18T06:19:41;17.70;99.90
30206;DHT22;17010;51.306;3.150;2023-09-18T06:22:07;17.80;99.90
30206;DHT22;17010;51.306;3.150;2023-09-18T06:24:37;17.80;99.90
30206;DHT22;17010;51.306;3.150;2023-09-18T06:27:03;17.80;99.90
30206;DHT22;17010;51.306;3.150;2023-09-18T06:29:31;17.90;99.90
30206;DHT22;17010;51.306;3.150;2023-09-18T06:31:58;18.00;99.90
30206;DHT22;17010;51.306;3.150;2023-09-18T06:34:25;18.10;99.90
30206;DHT22;17010;51.306;3.150;2023-09-18T06:36:51;18.20;99.90
30206;DHT22;17010;51.306;3.150;2023-09-18T06:39:18;18.40;99.90
30206;DHT22;17010;51.306;3.150;2023-09-18T06:41:46;18.50;99.90
30206;DHT22;17010;51.306;3.150;2023-09-18T06:44:12;18.70;99.90
30206;DHT22;17010;51.306;3.150;2023-09-18T06:46:38;18.80;99.90
30206;DHT22;17010;51.306;3.150;2023-09-18T06:49:05;18.90;99.90
30206;DHT22;17010;51.306;3.150;2023-09-18T06:51:32;19.00;99.90
30206;DHT22;17010;51.306;3.150;2023-09-18T06:53:58;19.10;99.90
30206;DHT22;17010;51.306;3.150;2023-09-18T06:56:24;19.10;99.90
30206;DHT22;17010;51.306;3.150;2023-09-18T06:58:51;19.20;99.90
30206;DHT22;17010;51.306;3.150;2023-09-18T07:01:22;19.30;99.90
30206;DHT22;17010;51.306;3.150;2023-09-18T07:03:50;19.40;99.90
30206;DHT22;17010;51.306;3.150;2023-09-18T07:06:18;19.50;99.90
30206;DHT22;17010;51.306;3.150;2023-09-18T07:08:48;19.60;99.90
30206;DHT22;17010;51.306;3.150;2023-09-18T07:11:16;19.70;99.90
30206;DHT22;17010;51.306;3.150;2023-09-18T07:13:43;19.70;99.90
30206;DHT22;17010;51.306;3.150;2023-09-18T07:16:10;19.80;99.90
30206;DHT22;17010;51.306;3.150;2023-09-18T07:18:39;19.90;99.90
30206;DHT22;17010;51.306;3.150;2023-09-18T07:21:05;19.90;99.90
30206;DHT22;17010;51.306;3.150;2023-09-18T07:23:31;20.00;99.90
30206;DHT22;17010;51.306;3.150;2023-09-18T07:26:02;19.90;99.90
30206;DHT22;17010;51.306;3.150;2023-09-18T07:28:29;19.90;99.90
30206;DHT22;17010;51.306;3.150;2023-09-18T07:30:56;19.90;99.90
30206;DHT22;17010;51.306;3.150;2023-09-18T07:33:23;19.90;99.90
30206;DHT22;17010;51.306;3.150;2023-09-18T07:35:50;20.10;99.90
30206;DHT22;17010;51.306;3.150;2023-09-18T07:38:17;20.30;99.90
30206;DHT22;17010;51.306;3.150;2023-09-18T07:40:45;20.40;99.90
30206;DHT22;17010;51.306;3.150;2023-09-18T07:43:13;20.60;99.90
30206;DHT22;17010;51.306;3.150;2023-09-18T07:45:40;20.80;99.90
30206;DHT22;17010;51.306;3.150;2023-09-18T07:48:08;20.90;99.90
30206;DHT22;17010;51.306;3.150;2023-09-18T07:50:36;21.10;99.90
30206;DHT22;17010;51.306;3.150;2023-09-18T07:53:03;21.10;99.90
30206;DHT22;17010;51.306;3.150;2023-09-18T07:55:29;21.10;99.90
30206;DHT22;17010;51.306;3.150;2023-09-18T07:57:56;21.30;99.90
30206;DHT22;17010;51.306;3.150;2023-09-18T08:00:22;21.50;99.90
30206;DHT22;17010;51.306;3.150;2023-09-18T08:02:52;21.60;99.90
30206;DHT22;17010;51.306;3.150;2023-09-18T08:05:22;21.80;99.90
30206;DHT22;17010;51.306;3.150;2023-09-18T08:07:49;22.00;99.90
30206;DHT22;17010;51.306;3.150;2023-09-18T08:10:17;22.20;99.90
30206;DHT22;17010;51.306;3.150;2023-09-18T08:12:43;22.50;99.90
30206;DHT22;17010;51.306;3.150;2023-09-18T08:15:10;22.70;99.90
30206;DHT22;17010;51.306;3.150;2023-09-18T08:17:37;22.80;99.90
30206;DHT22;17010;51.306;3.150;2023-09-18T08:20:04;23.00;99.90
30206;DHT22;17010;51.306;3.150;2023-09-18T08:22:38;22.90;99.90
30206;DHT22;17010;51.306;3.150;2023-09-18T08:25:05;23.00;99.90
30206;DHT22;17010;51.306;3.150;2023-09-18T08:27:33;23.20;99.90
30206;DHT22;17010;51.306;3.150;2023-09-18T08:30:01;23.40;99.90
30206;DHT22;17010;51.306;3.150;2023-09-18T08:32:27;23.50;99.90
30206;DHT22;17010;51.306;3.150;2023-09-18T08:34:56;23.70;99.90
30206;DHT22;17010;51.306;3.150;2023-09-18T08:37:25;24.00;99.90
30206;DHT22;17010;51.306;3.150;2023-09-18T08:39:51;24.30;99.90
30206;DHT22;17010;51.306;3.150;2023-09-18T08:42:18;24.50;99.90
30206;DHT22;17010;51.306;3.150;2023-09-18T08:44:46;24.30;99.90
30206;DHT22;17010;51.306;3.150;2023-09-18T08:47:16;23.90;99.90
30206;DHT22;17010;51.306;3.150;2023-09-18T08:49:43;23.40;99.90
30206;DHT22;17010;51.306;3.150;2023-09-18T08:52:09;23.00;99.90
30206;DHT22;17010;51.306;3.150;2023-09-18T08:54:36;22.70;99.90
30206;DHT22;17010;51.306;3.150;2023-09-18T08:57:03;22.60;99.90
30206;DHT22;17010;51.306;3.150;2023-09-18T08:59:34;22.60;99.90
30206;DHT22;17010;51.306;3.150;2023-09-18T09:02:00;22.80;99.90
30206;DHT22;17010;51.306;3.150;2023-09-18T09:04:28;23.10;99.90
30206;DHT22;17010;51.306;3.150;2023-09-18T09:06:54;23.40;99.90
30206;DHT22;17010;51.306;3.150;2023-09-18T09:09:23;23.50;99.90
30206;DHT22;17010;51.306;3.150;2023-09-18T09:11:52;23.60;99.90
30206;DHT22;17010;51.306;3.150;2023-09-18T09:14:18;23.70;99.90
30206;DHT22;17010;51.306;3.150;2023-09-18T09:16:49;23.90;99.90
30206;DHT22;17010;51.306;3.150;2023-09-18T09:19:16;24.10;99.90
30206;DHT22;17010;51.306;3.150;2023-09-18T09:21:44;24.20;99.90
30206;DHT22;17010;51.306;3.150;2023-09-18T09:24:11;24.10;99.90
30206;DHT22;17010;51.306;3.150;2023-09-18T09:26:41;24.00;99.90
30206;DHT22;17010;51.306;3.150;2023-09-18T09:29:18;23.90;99.90
30206;DHT22;17010;51.306;3.150;2023-09-18T09:31:46;24.00;99.90
30206;DHT22;17010;51.306;3.150;2023-09-18T09:34:25;23.90;99.90
30206;DHT22;17010;51.306;3.150;2023-09-18T09:36:56;23.80;99.90
30206;DHT22;17010;51.306;3.150;2023-09-18T09:39:23;23.70;99.90
30206;DHT22;17010;51.306;3.150;2023-09-18T09:41:54;23.60;99.90
30206;DHT22;17010;51.306;3.150;2023-09-18T09:44:20;23.60;99.90
30206;DHT22;17010;51.306;3.150;2023-09-18T09:46:48;23.70;99.90
30206;DHT22;17010;51.306;3.150;2023-09-18T09:49:16;24.00;99.90
30206;DHT22;17010;51.306;3.150;2023-09-18T09:51:42;24.50;99.90
30206;DHT22;17010;51.306;3.150;2023-09-18T09:54:09;25.20;99.90
30206;DHT22;17010;51.306;3.150;2023-09-18T09:56:42;25.90;99.90
30206;DHT22;17010;51.306;3.150;2023-09-18T09:59:09;26.40;99.90
30206;DHT22;17010;51.306;3.150;2023-09-18T10:01:38;26.30;99.90
30206;DHT22;17010;51.306;3.150;2023-09-18T10:04:18;26.40;99.90
30206;DHT22;17010;51.306;3.150;2023-09-18T10:06:54;26.40;99.90
30206;DHT22;17010;51.306;3.150;2023-09-18T10:09:21;26.40;99.90
30206;DHT22;17010;51.306;3.150;2023-09-18T10:11:51;26.30;99.90
30206;DHT22;17010;51.306;3.150;2023-09-18T10:14:19;26.20;99.90
30206;DHT22;17010;51.306;3.150;2023-09-18T10:16:53;25.90;99.90
30206;DHT22;17010;51.306;3.150;2023-09-18T10:22:14;25.30;99.90
30206;DHT22;17010;51.306;3.150;2023-09-18T10:24:46;25.50;99.90
30206;DHT22;17010;51.306;3.150;2023-09-18T10:27:15;26.00;99.90
30206;DHT22;17010;51.306;3.150;2023-09-18T10:29:43;26.40;99.90
30206;DHT22;17010;51.306;3.150;2023-09-18T10:32:13;27.00;99.90
30206;DHT22;17010;51.306;3.150;2023-09-18T10:34:40;27.40;99.90
30206;DHT22;17010;51.306;3.150;2023-09-18T10:37:07;27.60;99.90
30206;DHT22;17010;51.306;3.150;2023-09-18T10:39:38;27.50;99.90
30206;DHT22;17010;51.306;3.150;2023-09-18T10:42:08;27.30;99.90
30206;DHT22;17010;51.306;3.150;2023-09-18T10:44:35;27.30;99.90
30206;DHT22;17010;51.306;3.150;2023-09-18T10:47:03;27.40;99.90
30206;DHT22;17010;51.306;3.150;2023-09-18T10:49:31;27.10;99.90
30206;DHT22;17010;51.306;3.150;2023-09-18T10:51:59;26.50;99.90
30206;DHT22;17010;51.306;3.150;2023-09-18T10:54:28;26.00;99.90
30206;DHT22;17010;51.306;3.150;2023-09-18T10:56:56;25.60;99.90
30206;DHT22;17010;51.306;3.150;2023-09-18T10:59:23;25.50;99.90
30206;DHT22;17010;51.306;3.150;2023-09-18T11:01:49;25.70;99.90
30206;DHT22;17010;51.306;3.150;2023-09-18T11:04:18;25.80;99.90
30206;DHT22;17010;51.306;3.150;2023-09-18T11:09:25;25.90;99.90
30206;DHT22;17010;51.306;3.150;2023-09-18T11:11:53;25.80;99.90
30206;DHT22;17010;51.306;3.150;2023-09-18T11:14:23;26.10;99.90
30206;DHT22;17010;51.306;3.150;2023-09-18T11:16:49;26.10;99.90
30206;DHT22;17010;51.306;3.150;2023-09-18T11:19:17;26.30;99.90
30206;DHT22;17010;51.306;3.150;2023-09-18T11:21:44;26.50;99.90
30206;DHT22;17010;51.306;3.150;2023-09-18T11:24:16;26.70;99.90
30206;DHT22;17010;51.306;3.150;2023-09-18T11:26:45;27.10;99.90
30206;DHT22;17010;51.306;3.150;2023-09-18T11:29:14;27.20;99.90
30206;DHT22;17010;51.306;3.150;2023-09-18T11:32:01;27.40;99.90
30206;DHT22;17010;51.306;3.150;2023-09-18T11:34:30;27.30;99.90
30206;DHT22;17010;51.306;3.150;2023-09-18T11:37:23;27.60;99.90
30206;DHT22;17010;51.306;3.150;2023-09-18T11:39:51;27.50;99.90
30206;DHT22;17010;51.306;3.150;2023-09-18T11:42:20;26.80;99.90
30206;DHT22;17010;51.306;3.150;2023-09-18T11:44:49;26.40;99.90
30206;DHT22;17010;51.306;3.150;2023-09-18T11:47:17;26.10;99.90
30206;DHT22;17010;51.306;3.150;2023-09-18T11:49:51;25.80;99.90
30206;DHT22;17010;51.306;3.150;2023-09-18T11:52:23;25.60;99.90
30206;DHT22;17010;51.306;3.150;2023-09-18T11:54:50;25.50;99.90
30206;DHT22;17010;51.306;3.150;2023-09-18T11:57:18;25.30;99.90
30206;DHT22;17010;51.306;3.150;2023-09-18T11:59:46;25.10;99.90
30206;DHT22;17010;51.306;3.150;2023-09-18T12:02:32;24.90;99.90
30206;DHT22;17010;51.306;3.150;2023-09-18T12:05:11;24.60;99.90
30206;DHT22;17010;51.306;3.150;2023-09-18T12:07:40;24.30;99.90
30206;DHT22;17010;51.306;3.150;2023-09-18T12:10:15;24.30;99.90
30206;DHT22;17010;51.306;3.150;2023-09-18T12:12:43;24.30;99.90
30206;DHT22;17010;51.306;3.150;2023-09-18T12:15:13;24.20;99.90
30206;DHT22;17010;51.306;3.150;2023-09-18T12:17:41;23.90;99.90
30206;DHT22;17010;51.306;3.150;2023-09-18T12:20:17;23.70;99.90
30206;DHT22;17010;51.306;3.150;2023-09-18T12:22:50;23.40;99.90
30206;DHT22;17010;51.306;3.150;2023-09-18T12:25:17;23.20;99.90
30206;DHT22;17010;51.306;3.150;2023-09-18T12:27:44;22.80;99.90
30206;DHT22;17010;51.306;3.150;2023-09-18T12:30:13;22.40;99.90
30206;DHT22;17010;51.306;3.150;2023-09-18T12:32:46;22.00;99.90
30206;DHT22;17010;51.306;3.150;2023-09-18T12:35:15;21.70;99.90
30206;DHT22;17010;51.306;3.150;2023-09-18T12:37:44;21.40;99.90
30206;DHT22;17010;51.306;3.150;2023-09-18T12:40:27;21.10;99.90
30206;DHT22;17010;51.306;3.150;2023-09-18T12:42:55;20.80;99.90
30206;DHT22;17010;51.306;3.150;2023-09-18T12:45:23;20.30;99.90
30206;DHT22;17010;51.306;3.150;2023-09-18T12:47:51;19.60;99.90
30206;DHT22;17010;51.306;3.150;2023-09-18T12:50:18;19.30;99.90
30206;DHT22;17010;51.306;3.150;2023-09-18T12:52:44;18.90;99.90
30206;DHT22;17010;51.306;3.150;2023-09-18T12:55:26;18.80;99.90
30206;DHT22;17010;51.306;3.150;2023-09-18T12:57:53;18.70;99.90
30206;DHT22;17010;51.306;3.150;2023-09-18T13:00:21;18.80;99.90
30206;DHT22;17010;51.306;3.150;2023-09-18T13:02:49;18.90;99.90
30206;DHT22;17010;51.306;3.150;2023-09-18T13:05:21;19.10;99.90
30206;DHT22;17010;51.306;3.150;2023-09-18T13:07:53;19.20;99.90
30206;DHT22;17010;51.306;3.150;2023-09-18T13:10:20;19.30;99.90
30206;DHT22;17010;51.306;3.150;2023-09-18T13:12:49;19.30;99.90
30206;DHT22;17010;51.306;3.150;2023-09-18T13:17:53;19.60;99.90
30206;DHT22;17010;51.306;3.150;2023-09-18T13:20:28;19.70;99.90
30206;DHT22;17010;51.306;3.150;2023-09-18T13:22:56;19.80;99.90
30206;DHT22;17010;51.306;3.150;2023-09-18T13:25:24;19.80;99.90
30206;DHT22;17010;51.306;3.150;2023-09-18T13:27:52;19.80;99.90
30206;DHT22;17010;51.306;3.150;2023-09-18T13:30:18;19.70;99.90
30206;DHT22;17010;51.306;3.150;2023-09-18T13:32:46;19.60;99.90
30206;DHT22;17010;51.306;3.150;2023-09-18T13:35:17;19.50;99.90
30206;DHT22;17010;51.306;3.150;2023-09-18T13:37:44;19.70;99.90
30206;DHT22;17010;51.306;3.150;2023-09-18T13:40:11;19.70;99.90
30206;DHT22;17010;51.306;3.150;2023-09-18T13:42:38;19.80;99.90
30206;DHT22;17010;51.306;3.150;2023-09-18T13:45:05;20.00;99.90
30206;DHT22;17010;51.306;3.150;2023-09-18T13:47:35;20.10;99.90
30206;DHT22;17010;51.306;3.150;2023-09-18T13:50:02;20.10;99.90
30206;DHT22;17010;51.306;3.150;2023-09-18T13:52:33;20.00;99.90
30206;DHT22;17010;51.306;3.150;2023-09-18T13:55:00;19.90;99.90
30206;DHT22;17010;51.306;3.150;2023-09-18T13:57:26;19.70;99.90
30206;DHT22;17010;51.306;3.150;2023-09-18T13:59:53;19.70;99.90
30206;DHT22;17010;51.306;3.150;2023-09-18T14:02:19;19.70;99.90
30206;DHT22;17010;51.306;3.150;2023-09-18T14:04:46;19.70;99.90
30206;DHT22;17010;51.306;3.150;2023-09-18T14:07:12;19.70;99.90
30206;DHT22;17010;51.306;3.150;2023-09-18T14:09:39;19.70;99.90
30206;DHT22;17010;51.306;3.150;2023-09-18T14:12:06;19.60;99.90
30206;DHT22;17010;51.306;3.150;2023-09-18T14:14:35;19.70;99.90
30206;DHT22;17010;51.306;3.150;2023-09-18T14:17:02;19.80;99.90
30206;DHT22;17010;51.306;3.150;2023-09-18T14:19:31;19.80;99.90
30206;DHT22;17010;51.306;3.150;2023-09-18T14:21:58;19.70;99.90
30206;DHT22;17010;51.306;3.150;2023-09-18T14:24:32;19.60;99.90
30206;DHT22;17010;51.306;3.150;2023-09-18T14:27:03;19.70;99.90
30206;DHT22;17010;51.306;3.150;2023-09-18T14:29:30;19.70;99.90
30206;DHT22;17010;51.306;3.150;2023-09-18T14:31:56;19.80;99.90
30206;DHT22;17010;51.306;3.150;2023-09-18T14:34:23;19.80;99.90
30206;DHT22;17010;51.306;3.150;2023-09-18T14:36:49;19.90;99.90
30206;DHT22;17010;51.306;3.150;2023-09-18T14:39:15;19.80;99.90
30206;DHT22;17010;51.306;3.150;2023-09-18T14:41:42;19.70;99.90
30206;DHT22;17010;51.306;3.150;2023-09-18T14:44:09;19.60;99.90
30206;DHT22;17010;51.306;3.150;2023-09-18T14:46:36;19.60;99.90
30206;DHT22;17010;51.306;3.150;2023-09-18T14:49:04;19.70;99.90
30206;DHT22;17010;51.306;3.150;2023-09-18T14:51:30;19.70;99.90
30206;DHT22;17010;51.306;3.150;2023-09-18T14:53:57;19.70;99.90
30206;DHT22;17010;51.306;3.150;2023-09-18T14:56:24;19.70;99.90
30206;DHT22;17010;51.306;3.150;2023-09-18T14:58:51;19.70;99.90
30206;DHT22;17010;51.306;3.150;2023-09-18T15:01:18;19.70;99.90
30206;DHT22;17010;51.306;3.150;2023-09-18T15:03:45;19.70;99.90
30206;DHT22;17010;51.306;3.150;2023-09-18T15:06:11;19.60;99.90
30206;DHT22;17010;51.306;3.150;2023-09-18T15:08:38;19.60;99.90
30206;DHT22;17010;51.306;3.150;2023-09-18T15:11:04;19.50;99.90
30206;DHT22;17010;51.306;3.150;2023-09-18T15:13:30;19.40;99.90
30206;DHT22;17010;51.306;3.150;2023-09-18T15:15:58;19.40;99.90
30206;DHT22;17010;51.306;3.150;2023-09-18T15:18:27;19.30;99.90
30206;DHT22;17010;51.306;3.150;2023-09-18T15:20:54;19.30;99.90
30206;DHT22;17010;51.306;3.150;2023-09-18T15:23:21;19.40;99.90
30206;DHT22;17010;51.306;3.150;2023-09-18T15:25:49;19.50;99.90
30206;DHT22;17010;51.306;3.150;2023-09-18T15:28:16;19.50;99.90
30206;DHT22;17010;51.306;3.150;2023-09-18T15:30:46;19.50;99.90
30206;DHT22;17010;51.306;3.150;2023-09-18T15:33:13;19.50;99.90
30206;DHT22;17010;51.306;3.150;2023-09-18T15:35:42;19.50;99.90
30206;DHT22;17010;51.306;3.150;2023-09-18T15:38:08;19.50;99.90
30206;DHT22;17010;51.306;3.150;2023-09-18T15:40:36;19.50;99.90
30206;DHT22;17010;51.306;3.150;2023-09-18T15:43:03;19.40;99.90
30206;DHT22;17010;51.306;3.150;2023-09-18T15:45:29;19.40;99.90
30206;DHT22;17010;51.306;3.150;2023-09-18T15:47:57;19.30;99.90